createdAt,value
2022-08-07T00:02:37.253Z,53.49
2022-08-07T00:04:54.830Z,53.49
2022-08-07T00:07:24.037Z,53.57
2022-08-07T00:10:19.140Z,53.54
2022-08-07T00:12:57.662Z,53.66
2022-08-07T00:15:36.073Z,53.59
2022-08-07T00:18:24.139Z,53.65
2022-08-07T00:20:57.567Z,53.67
2022-08-07T00:23:35.058Z,53.70
2022-08-07T00:26:18.661Z,53.68
2022-08-07T00:28:56.508Z,53.62
2022-08-07T00:31:37.994Z,53.73
2022-08-07T00:34:12.982Z,53.63
2022-08-07T00:36:44.739Z,53.60
2022-08-07T00:39:16.571Z,53.49
2022-08-07T00:42:01.459Z,53.35
2022-08-07T00:44:38.359Z,53.47
2022-08-07T00:48:07.729Z,53.23
2022-08-07T00:50:19.154Z,53.36
2022-08-07T00:52:50.359Z,53.40
2022-08-07T00:55:46.598Z,53.24
2022-08-07T00:58:10.821Z,53.26
2022-08-07T01:00:53.737Z,53.38
2022-08-07T01:03:56.150Z,53.41
2022-08-07T01:06:11.391Z,53.62
2022-08-07T01:08:53.078Z,53.68
2022-08-07T01:12:09.179Z,53.72
2022-08-07T01:14:11.969Z,53.84
2022-08-07T01:16:47.396Z,54.05
2022-08-07T01:19:20.510Z,54.08
2022-08-07T01:21:55.517Z,54.18
2022-08-07T01:24:30.716Z,54.36
2022-08-07T01:27:01.375Z,54.57
2022-08-07T01:29:34.271Z,54.52
2022-08-07T01:32:12.378Z,54.64
2022-08-07T01:34:47.223Z,54.76
2022-08-07T01:37:17.476Z,54.88
2022-08-07T01:39:50.985Z,54.90
2022-08-07T01:42:38.057Z,54.83
2022-08-07T01:45:17.841Z,54.87
2022-08-07T01:48:19.710Z,54.86
2022-08-07T01:50:40.247Z,54.91
2022-08-07T01:53:20.777Z,54.94
2022-08-07T01:55:58.551Z,54.91
2022-08-07T01:58:33.108Z,54.89
2022-08-07T02:02:02.103Z,54.92
2022-08-07T02:04:36.767Z,54.95
2022-08-07T02:07:09.764Z,55.01
2022-08-07T02:09:52.782Z,54.98
2022-08-07T02:12:29.203Z,54.99
2022-08-07T02:15:06.003Z,55.05
2022-08-07T02:17:49.741Z,55.02
2022-08-07T02:20:28.536Z,54.96
2022-08-07T02:23:01.895Z,55.05
2022-08-07T02:26:30.388Z,55.10
2022-08-07T02:28:25.527Z,55.06
2022-08-07T02:30:59.262Z,55.12
2022-08-07T02:33:32.763Z,55.02
2022-08-07T02:36:29.121Z,55.06
2022-08-07T02:38:56.769Z,55.10
2022-08-07T02:41:33.306Z,55.14
2022-08-07T02:44:07.011Z,55.18
2022-08-07T02:46:37.624Z,55.15
2022-08-07T02:49:28.706Z,55.21
2022-08-07T02:52:01.878Z,55.34
2022-08-07T02:54:33.837Z,55.44
2022-08-07T02:57:06.571Z,55.41
2022-08-07T02:59:38.744Z,55.63
2022-08-07T03:02:10.492Z,55.74
2022-08-07T03:04:43.258Z,55.87
2022-08-07T03:07:17.630Z,55.95
2022-08-07T03:09:52.675Z,56.10
2022-08-07T03:12:30.913Z,56.33
2022-08-07T03:15:07.703Z,56.59
2022-08-07T03:17:53.487Z,56.62
2022-08-07T03:20:26.732Z,56.81
2022-08-07T03:22:58.763Z,56.99
2022-08-07T03:25:32.575Z,57.20
2022-08-07T03:28:37.971Z,57.30
2022-08-07T03:31:24.683Z,57.78
2022-08-07T03:34:00.972Z,58.22
2022-08-07T03:36:33.208Z,58.42
2022-08-07T03:39:09.992Z,58.66
2022-08-07T03:41:42.616Z,58.82
2022-08-07T03:44:31.772Z,59.30
2022-08-07T03:47:12.986Z,59.59
2022-08-07T03:49:53.488Z,59.87
2022-08-07T03:52:27.386Z,60.08
2022-08-07T03:55:07.077Z,60.12
2022-08-07T03:59:05.042Z,60.35
2022-08-07T04:00:33.878Z,60.61
2022-08-07T04:03:05.284Z,60.70
2022-08-07T04:05:40.509Z,60.76
2022-08-07T04:08:18.463Z,60.93
2022-08-07T04:10:54.044Z,61.19
2022-08-07T04:14:10.311Z,61.44
2022-08-07T04:16:30.855Z,61.59
2022-08-07T04:19:12.319Z,61.82
2022-08-07T04:21:59.666Z,62.01
2022-08-07T04:24:39.131Z,62.16
2022-08-07T04:27:20.475Z,61.92
2022-08-07T04:30:01.391Z,61.99
2022-08-07T04:32:39.754Z,62.06
2022-08-07T04:35:15.822Z,62.26
2022-08-07T04:38:03.169Z,62.12
2022-08-07T04:40:34.038Z,62.43
2022-08-07T04:43:03.869Z,62.69
2022-08-07T04:46:12.416Z,62.93
2022-08-07T04:48:52.180Z,63.09
2022-08-07T04:51:48.450Z,63.24
2022-08-07T04:54:41.197Z,63.39
2022-08-07T04:58:26.200Z,63.55
2022-08-07T05:00:57.519Z,63.83
2022-08-07T05:04:20.771Z,64.14
2022-08-07T05:06:59.195Z,64.35
2022-08-07T05:09:46.582Z,64.47
2022-08-07T05:12:30.574Z,64.22
2022-08-07T05:15:23.485Z,64.11
2022-08-07T05:18:08.659Z,64.27
2022-08-07T05:20:43.823Z,64.22
2022-08-07T05:23:31.049Z,64.19
2022-08-07T05:26:18.810Z,63.89
2022-08-07T05:28:56.556Z,63.75
2022-08-07T05:31:34.728Z,63.73
2022-08-07T05:34:10.749Z,63.55
2022-08-07T05:36:43.739Z,63.41
2022-08-07T05:40:14.188Z,63.02
2022-08-07T05:42:34.550Z,62.75
2022-08-07T05:45:14.298Z,62.58
2022-08-07T05:48:01.313Z,61.80
2022-08-07T05:50:32.150Z,61.14
2022-08-07T05:53:04.304Z,60.64
2022-08-07T05:56:02.075Z,60.30
2022-08-07T05:58:36.086Z,59.98
2022-08-07T06:01:09.217Z,59.84
2022-08-07T06:03:56.627Z,59.59
2022-08-07T06:06:29.697Z,59.02
2022-08-07T06:09:04.370Z,58.85
2022-08-07T06:11:36.096Z,58.66
2022-08-07T06:14:13.298Z,58.54
2022-08-07T06:16:56.269Z,58.24
2022-08-07T06:19:47.938Z,58.11
2022-08-07T06:22:23.333Z,58.23
2022-08-07T06:25:01.493Z,58.08
2022-08-07T06:27:43.990Z,57.79
2022-08-07T06:30:32.020Z,57.82
2022-08-07T06:33:15.690Z,57.85
2022-08-07T06:36:12.946Z,58.11
2022-08-07T06:38:51.440Z,58.09
2022-08-07T06:42:01.733Z,57.86
2022-08-07T06:44:51.448Z,57.73
2022-08-07T06:47:21.915Z,57.78
2022-08-07T06:49:58.284Z,57.41
2022-08-07T06:52:35.504Z,57.37
2022-08-07T06:55:32.990Z,57.23
2022-08-07T06:58:10.584Z,56.99
2022-08-07T07:00:52.743Z,56.85
2022-08-07T07:03:26.447Z,56.75
2022-08-07T07:06:13.153Z,56.65
2022-08-07T07:08:46.807Z,56.65
2022-08-07T07:12:08.441Z,56.38
2022-08-07T07:14:08.562Z,56.13
2022-08-07T07:16:49.615Z,55.95
2022-08-07T07:19:57.203Z,55.92
2022-08-07T07:22:36.590Z,56.01
2022-08-07T07:26:30.502Z,55.84
2022-08-07T07:28:29.458Z,55.92
2022-08-07T07:31:03.819Z,56.00
2022-08-07T07:33:36.026Z,55.96
2022-08-07T07:36:13.378Z,55.90
2022-08-07T07:38:46.182Z,55.88
2022-08-07T07:41:17.829Z,55.83
2022-08-07T07:44:17.387Z,55.69
2022-08-07T07:46:55.361Z,55.85
2022-08-07T07:50:35.901Z,55.15
2022-08-07T07:52:22.005Z,54.51
2022-08-07T07:54:52.106Z,53.38
2022-08-07T07:57:51.480Z,52.84
2022-08-07T08:00:20.921Z,52.55
2022-08-07T08:03:16.714Z,52.19
2022-08-07T08:05:58.904Z,51.75
2022-08-07T08:08:34.790Z,51.41
2022-08-07T08:11:08.022Z,51.17
2022-08-07T08:13:53.782Z,50.85
2022-08-07T08:16:31.022Z,49.98
2022-08-07T08:19:17.271Z,48.74
2022-08-07T08:22:09.792Z,48.35
2022-08-07T08:25:09.461Z,48.06
2022-08-07T08:27:56.565Z,48.65
2022-08-07T08:30:34.866Z,48.11
2022-08-07T08:33:15.277Z,47.83
2022-08-07T08:35:49.846Z,47.66
2022-08-07T08:38:26.013Z,47.09
2022-08-07T08:41:09.446Z,46.02
2022-08-07T08:44:14.371Z,45.83
2022-08-07T08:47:20.291Z,45.18
2022-08-07T08:50:05.489Z,44.62
2022-08-07T08:52:40.648Z,43.32
2022-08-07T08:55:54.784Z,42.69
2022-08-07T08:58:43.368Z,42.79
2022-08-07T09:01:19.331Z,42.57
2022-08-07T09:03:58.934Z,42.12
2022-08-07T09:06:58.227Z,41.60
2022-08-07T09:09:47.507Z,41.26
2022-08-07T09:12:30.912Z,41.05
2022-08-07T09:16:23.616Z,40.65
2022-08-07T09:19:00.747Z,40.32
2022-08-07T09:21:57.691Z,39.91
2022-08-07T09:24:55.099Z,39.72
2022-08-07T09:27:59.779Z,39.78
2022-08-07T09:30:33.304Z,39.61
2022-08-07T09:33:16.780Z,39.48
2022-08-07T09:36:27.136Z,39.42
2022-08-07T09:39:52.999Z,38.98
2022-08-07T09:42:50.456Z,38.51
2022-08-07T09:47:49.911Z,38.25
2022-08-07T09:50:00.616Z,37.99
2022-08-07T09:52:34.436Z,37.51
2022-08-07T09:55:16.890Z,37.50
2022-08-07T09:58:10.038Z,37.07
2022-08-07T10:01:15.024Z,36.09
2022-08-07T10:04:14.290Z,36.32
2022-08-07T10:06:56.867Z,36.05
2022-08-07T10:10:00.850Z,35.97
2022-08-07T10:13:05.281Z,35.84
2022-08-07T10:16:02.186Z,35.68
2022-08-07T10:18:57.235Z,35.44
2022-08-07T10:22:16.281Z,35.32
2022-08-07T10:24:55.280Z,34.72
2022-08-07T10:28:02.767Z,34.92
2022-08-07T10:30:50.144Z,34.86
2022-08-07T10:34:06.034Z,34.32
2022-08-07T10:37:05.708Z,34.14
2022-08-07T10:40:05.983Z,33.78
2022-08-07T10:42:47.414Z,34.12
2022-08-07T10:45:19.398Z,34.10
2022-08-07T10:48:04.417Z,33.35
2022-08-07T10:50:49.892Z,32.48
2022-08-07T10:53:47.573Z,32.44
2022-08-07T10:56:45.047Z,32.37
2022-08-07T10:59:47.508Z,32.33
2022-08-07T11:02:39.945Z,32.52
2022-08-07T11:05:48.697Z,32.11
2022-08-07T11:08:38.979Z,31.68
2022-08-07T11:11:35.721Z,31.88
2022-08-07T11:14:46.406Z,31.63
2022-08-07T11:17:13.349Z,31.49
2022-08-07T11:20:03.330Z,31.80
2022-08-07T11:22:45.585Z,31.71
2022-08-07T11:25:29.654Z,31.83
2022-08-07T11:28:25.190Z,31.18
2022-08-07T11:31:35.043Z,31.52
2022-08-07T11:34:12.369Z,31.56
2022-08-07T11:37:00.226Z,31.74
2022-08-07T11:40:06.161Z,31.97
2022-08-07T11:42:50.465Z,31.50
2022-08-07T11:45:53.466Z,31.10
2022-08-07T11:48:40.682Z,31.30
2022-08-07T11:51:48.711Z,31.05
2022-08-07T11:54:41.409Z,30.83
2022-08-07T11:57:59.533Z,30.81
2022-08-07T12:01:02.186Z,30.27
2022-08-07T12:04:01.666Z,29.99
2022-08-07T12:06:37.210Z,29.90
2022-08-07T12:09:16.349Z,29.73
2022-08-07T12:12:09.027Z,29.43
2022-08-07T12:15:05.238Z,29.11
2022-08-07T12:17:58.652Z,29.31
2022-08-07T12:20:36.465Z,28.95
2022-08-07T12:24:05.052Z,28.69
2022-08-07T12:26:30.078Z,28.10
2022-08-07T12:29:13.674Z,27.79
2022-08-07T12:32:15.335Z,27.36
2022-08-07T12:34:49.330Z,27.60
2022-08-07T12:37:27.950Z,27.22
2022-08-07T12:40:36.105Z,27.21
2022-08-07T12:43:09.833Z,26.99
2022-08-07T12:45:52.763Z,26.40
2022-08-07T12:48:28.390Z,26.52
2022-08-07T12:51:17.670Z,26.84
2022-08-07T12:54:23.716Z,26.74
2022-08-07T12:56:55.007Z,26.47
2022-08-07T12:59:53.826Z,25.54
2022-08-07T13:02:51.212Z,25.16
2022-08-07T13:06:04.728Z,24.66
2022-08-07T13:08:39.121Z,24.76
2022-08-07T13:12:03.493Z,24.88
2022-08-07T13:14:51.524Z,24.26
2022-08-07T13:17:39.814Z,24.67
2022-08-07T13:20:19.032Z,24.47
2022-08-07T13:23:06.162Z,24.47
2022-08-07T13:26:01.362Z,23.96
2022-08-07T13:28:37.886Z,24.01
2022-08-07T13:31:17.951Z,24.04
2022-08-07T13:34:34.615Z,23.23
2022-08-07T13:36:55.490Z,23.69
2022-08-07T13:40:33.806Z,23.54
2022-08-07T13:42:35.207Z,23.17
2022-08-07T13:46:06.821Z,23.20
2022-08-07T13:48:06.017Z,22.83
2022-08-07T13:50:45.294Z,22.99
2022-08-07T13:54:00.211Z,22.68
2022-08-07T13:56:36.105Z,22.39
2022-08-07T13:59:13.855Z,21.70
2022-08-07T14:02:03.778Z,21.61
2022-08-07T14:04:46.095Z,21.34
2022-08-07T14:07:22.845Z,21.55
2022-08-07T14:10:20.476Z,21.80
2022-08-07T14:12:58.697Z,21.65
2022-08-07T14:15:31.841Z,21.61
2022-08-07T14:18:27.565Z,20.96
2022-08-07T14:22:03.093Z,21.38
2022-08-07T14:24:20.806Z,20.64
2022-08-07T14:26:52.478Z,20.59
2022-08-07T14:30:09.807Z,20.47
2022-08-07T14:32:15.375Z,20.31
2022-08-07T14:34:46.720Z,19.95
2022-08-07T14:37:23.728Z,20.04
2022-08-07T14:40:17.944Z,19.68
2022-08-07T14:43:59.384Z,19.94
2022-08-07T14:45:59.880Z,19.61
2022-08-07T14:48:38.164Z,19.42
2022-08-07T14:51:16.296Z,19.31
2022-08-07T14:54:10.003Z,19.18
2022-08-07T14:56:40.311Z,19.02
2022-08-07T14:59:14.030Z,18.90
2022-08-07T15:02:32.963Z,18.91
2022-08-07T15:05:02.051Z,18.92
2022-08-07T15:07:47.308Z,18.69
2022-08-07T15:10:26.014Z,18.59
2022-08-07T15:13:01.348Z,18.59
2022-08-07T15:18:45.420Z,18.66
2022-08-07T15:21:44.345Z,18.86
2022-08-07T15:25:15.980Z,18.87
2022-08-07T15:27:11.935Z,18.97
2022-08-07T15:30:10.283Z,18.83
2022-08-07T15:32:50.810Z,18.60
2022-08-07T15:36:01.454Z,18.14
2022-08-07T15:38:31.184Z,17.83
2022-08-07T15:41:23.790Z,17.58
2022-08-07T15:44:07.145Z,17.80
2022-08-07T15:46:47.430Z,17.66
2022-08-07T15:50:05.719Z,17.75
2022-08-07T15:52:20.845Z,17.67
2022-08-07T15:54:51.664Z,17.50
2022-08-07T15:57:40.229Z,17.60
2022-08-07T16:00:32.004Z,17.70
2022-08-07T16:03:05.421Z,17.71
2022-08-07T16:05:34.639Z,17.28
2022-08-07T16:08:31.706Z,17.10
2022-08-07T16:11:26.310Z,17.62
2022-08-07T16:14:20.222Z,17.62
2022-08-07T16:17:14.845Z,17.21
2022-08-07T16:20:03.742Z,17.22
2022-08-07T16:23:05.307Z,17.28
2022-08-07T16:25:56.666Z,17.34
2022-08-07T16:29:18.514Z,17.09
2022-08-07T16:32:07.611Z,17.56
2022-08-07T16:35:00.251Z,17.32
2022-08-07T16:38:03.893Z,17.26
2022-08-07T16:40:57.136Z,17.16
2022-08-07T16:44:05.730Z,17.11
2022-08-07T16:47:38.628Z,16.90
2022-08-07T16:50:35.541Z,16.80
2022-08-07T16:54:02.102Z,16.72
2022-08-07T16:56:14.663Z,17.13
2022-08-07T16:59:15.301Z,17.15
2022-08-07T17:02:03.237Z,17.15
2022-08-07T17:04:51.122Z,17.00
2022-08-07T17:07:55.841Z,17.09
2022-08-07T17:10:54.867Z,17.23
2022-08-07T17:14:18.298Z,17.19
2022-08-07T17:16:55.880Z,17.13
2022-08-07T17:20:02.990Z,17.22
2022-08-07T17:22:54.878Z,17.37
2022-08-07T17:25:51.419Z,17.33
2022-08-07T17:28:32.420Z,17.66
2022-08-07T17:31:18.100Z,17.53
2022-08-07T17:34:15.601Z,17.66
2022-08-07T17:36:57.951Z,17.80
2022-08-07T17:39:58.187Z,17.94
2022-08-07T17:42:59.767Z,18.22
2022-08-07T17:45:35.281Z,18.23
2022-08-07T17:48:11.287Z,18.56
2022-08-07T17:51:14.861Z,18.87
2022-08-07T17:54:00.984Z,19.32
2022-08-07T17:56:49.765Z,19.80
2022-08-07T17:59:25.736Z,19.93
2022-08-07T18:02:14.569Z,20.35
2022-08-07T18:04:51.676Z,20.37
2022-08-07T18:07:34.252Z,20.53
2022-08-07T18:10:28.630Z,20.83
2022-08-07T18:13:01.172Z,21.37
2022-08-07T18:15:41.274Z,21.71
2022-08-07T18:18:45.427Z,22.17
2022-08-07T18:21:38.380Z,22.53
2022-08-07T18:24:09.142Z,23.21
2022-08-07T18:26:40.815Z,23.63
2022-08-07T18:30:08.032Z,23.97
2022-08-07T18:32:09.560Z,24.59
2022-08-07T18:35:01.548Z,25.19
2022-08-07T18:38:57.526Z,25.63
2022-08-07T18:41:44.951Z,26.33
2022-08-07T18:45:44.033Z,26.94
2022-08-07T18:48:10.772Z,27.66
2022-08-07T18:51:17.117Z,28.15
2022-08-07T18:54:31.181Z,28.85
2022-08-07T18:57:31.430Z,29.21
2022-08-07T19:00:32.440Z,29.80
2022-08-07T19:03:16.046Z,30.33
2022-08-07T19:06:03.150Z,30.78
2022-08-07T19:08:54.824Z,31.27
2022-08-07T19:11:52.081Z,31.67
2022-08-07T19:15:00.487Z,32.00
2022-08-07T19:18:02.674Z,32.53
2022-08-07T19:21:08.377Z,32.85
2022-08-07T19:23:58.309Z,33.19
2022-08-07T19:28:28.367Z,33.43
2022-08-07T19:31:03.118Z,33.92
2022-08-07T19:32:29.111Z,34.14
2022-08-07T19:35:05.944Z,34.44
2022-08-07T19:37:57.175Z,34.48
2022-08-07T19:40:31.532Z,34.97
2022-08-07T19:43:09.022Z,35.16
2022-08-07T19:46:06.154Z,35.41
2022-08-07T19:48:44.478Z,35.74
2022-08-07T19:51:52.657Z,36.07
2022-08-07T19:54:33.550Z,36.09
2022-08-07T19:58:00.787Z,36.43
2022-08-07T20:00:02.977Z,36.69
2022-08-07T20:02:52.218Z,36.70
2022-08-07T20:05:28.001Z,36.93
2022-08-07T20:08:07.800Z,37.32
2022-08-07T20:10:55.282Z,37.49
2022-08-07T20:13:33.095Z,37.62
2022-08-07T20:16:04.654Z,37.90
2022-08-07T20:18:35.119Z,38.00
2022-08-07T20:21:14.432Z,38.23
2022-08-07T20:23:57.951Z,38.39
2022-08-07T20:26:38.731Z,38.59
2022-08-07T20:29:47.872Z,38.73
2022-08-07T20:32:11.515Z,38.95
2022-08-07T20:34:54.659Z,38.98
2022-08-07T20:37:37.122Z,39.30
2022-08-07T20:40:33.397Z,39.45
2022-08-07T20:43:09.706Z,39.63
2022-08-07T20:46:27.744Z,39.72
2022-08-07T20:48:37.386Z,39.95
2022-08-07T20:51:09.768Z,40.14
2022-08-07T20:54:04.785Z,40.22
2022-08-07T20:56:30.778Z,40.35
2022-08-07T20:59:05.287Z,40.37
2022-08-07T21:01:45.257Z,40.61
2022-08-07T21:04:28.852Z,40.79
2022-08-07T21:07:04.008Z,40.79
2022-08-07T21:09:52.784Z,41.04
2022-08-07T21:12:31.144Z,41.06
2022-08-07T21:15:03.358Z,41.15
2022-08-07T21:18:03.662Z,41.25
2022-08-07T21:20:29.788Z,41.33
2022-08-07T21:23:08.019Z,41.42
2022-08-07T21:25:44.846Z,41.56
2022-08-07T21:28:58.248Z,41.70
2022-08-07T21:32:42.319Z,41.82
2022-08-07T21:35:02.406Z,41.94
2022-08-07T21:37:58.971Z,42.00
2022-08-07T21:40:50.230Z,42.17
2022-08-07T21:43:55.409Z,42.29
2022-08-07T21:46:36.739Z,42.37
2022-08-07T21:49:18.126Z,42.48
2022-08-07T21:52:32.845Z,42.58
2022-08-07T21:55:28.146Z,42.64
2022-08-07T21:58:51.272Z,42.71
2022-08-07T22:02:11.246Z,42.87
2022-08-07T22:04:53.950Z,43.06
2022-08-07T22:07:35.744Z,43.24
2022-08-07T22:10:20.939Z,43.29
2022-08-07T22:13:02.757Z,43.34
2022-08-07T22:16:38.902Z,43.36
2022-08-07T22:19:00.953Z,43.38
2022-08-07T22:22:05.011Z,43.38
2022-08-07T22:25:03.470Z,43.39
2022-08-07T22:28:07.812Z,43.38
2022-08-07T22:30:41.533Z,43.39
2022-08-07T22:33:15.174Z,43.32
2022-08-07T22:36:04.886Z,43.43
2022-08-07T22:38:48.742Z,43.51
2022-08-07T22:42:03.958Z,43.58
2022-08-07T22:44:25.098Z,43.63
2022-08-07T22:47:27.081Z,43.66
2022-08-07T22:49:58.904Z,43.72
2022-08-07T22:52:43.512Z,43.83
2022-08-07T22:55:29.949Z,43.87
2022-08-07T22:58:16.920Z,43.95
2022-08-07T23:01:09.119Z,44.05
2022-08-07T23:03:58.919Z,44.08
2022-08-07T23:06:50.608Z,44.08
2022-08-07T23:10:04.906Z,44.14
2022-08-07T23:13:05.168Z,44.24
2022-08-07T23:16:07.181Z,44.35
2022-08-07T23:19:48.230Z,44.40
2022-08-07T23:22:32.873Z,44.38
2022-08-07T23:25:28.166Z,44.66
2022-08-07T23:28:22.073Z,44.63
2022-08-07T23:31:06.474Z,44.71
2022-08-07T23:34:34.504Z,44.75
2022-08-07T23:36:43.259Z,44.85
2022-08-07T23:39:27.771Z,45.06
2022-08-07T23:42:24.290Z,45.11
2022-08-07T23:45:06.799Z,45.18
2022-08-07T23:48:07.598Z,45.28
2022-08-07T23:50:54.840Z,45.40
2022-08-07T23:53:51.800Z,45.48
2022-08-07T23:56:34.862Z,45.74
